Time;durP1;ratioP1;P1;durP2;ratioP2;P2;SDS_P1;SDS_P2;PMS_P1;PMS_P2;Temp;Humidity;BMP_temperature;BMP_pressure;BME280_temperature;BME280_humidity;BME280_pressure;Samples;Min_cycle;Max_cycle;Signal;HPM_P1;HPM_P2
2021/10/13 00:00:08;;;;;;;;;8.75;7.75;;;;;21.19;49.07;101572.06;5059039;28;45209;-77
2021/10/13 00:02:33;;;;;;;;;8.50;7.75;;;;;21.16;48.66;101577.47;5059037;28;45257;-77
2021/10/13 00:04:58;;;;;;;;;12.00;10.00;;;;;21.11;49.06;101576.66;5059060;28;62961;-77
2021/10/13 00:07:24;;;;;;;;;9.00;9.00;;;;;21.09;49.30;101573.19;5041602;28;66434;-76
2021/10/13 00:09:49;;;;;;;;;9.25;8.00;;;;;21.10;49.25;101580.25;5060087;28;56427;-76
2021/10/13 00:12:16;;;;;;;;;9.25;8.75;;;;;21.11;49.04;101571.38;5050708;28;45438;-76
2021/10/13 00:14:42;;;;;;;;;10.75;9.50;;;;;21.10;48.99;101580.25;5060677;28;45519;-76
2021/10/13 00:17:07;;;;;;;;;10.00;9.00;;;;;21.12;48.95;101581.09;5079097;28;45881;-77
2021/10/13 00:19:35;;;;;;;;;9.25;8.00;;;;;21.09;48.94;101576.72;5078257;28;56155;-77
2021/10/13 00:22:00;;;;;;;;;8.75;8.75;;;;;21.08;49.22;101576.75;5050953;28;45158;-76
2021/10/13 00:24:25;;;;;;;;;10.25;8.00;;;;;21.07;48.82;101570.56;5078064;28;58236;-76
2021/10/13 00:26:51;;;;;;;;;10.25;9.25;;;;;21.05;49.28;101576.81;5078845;28;45891;-77
2021/10/13 00:29:16;;;;;;;;;8.25;8.25;;;;;21.07;48.75;101585.63;5041776;28;45276;-76
2021/10/13 00:31:42;;;;;;;;;10.00;9.00;;;;;21.07;48.91;101580.31;5071146;28;45332;-76
2021/10/13 00:34:07;;;;;;;;;8.75;8.50;;;;;21.10;49.13;101589.06;5073588;28;60085;-76
2021/10/13 00:36:32;;;;;;;;;8.00;8.00;;;;;21.13;48.97;101594.34;5048419;27;56803;-76
2021/10/13 00:38:58;;;;;;;;;9.50;7.50;;;;;21.13;49.15;101588.16;5096048;27;61253;-77
2021/10/13 00:41:23;;;;;;;;;8.00;7.75;;;;;21.08;48.96;101590.91;5081740;27;54959;-76
2021/10/13 00:43:49;;;;;;;;;12.50;9.25;;;;;21.07;49.11;101601.53;5047817;27;59885;-76
2021/10/13 00:46:14;;;;;;;;;10.50;9.00;;;;;21.06;48.59;101591.84;5081948;27;46298;-76
2021/10/13 00:48:40;;;;;;;;;11.00;9.75;;;;;21.08;48.96;101603.28;5065003;27;45414;-77
2021/10/13 00:51:05;;;;;;;;;9.25;9.00;;;;;21.06;49.04;101605.97;5048140;27;45483;-78
2021/10/13 00:53:31;;;;;;;;;11.00;8.75;;;;;21.09;49.32;101607.69;5079105;27;45312;-76
2021/10/13 00:55:59;;;;;;;;;10.25;10.25;;;;;21.09;48.77;101610.34;5064862;27;45416;-77
2021/10/13 00:58:24;;;;;;;;;11.75;10.00;;;;;21.08;48.56;101604.16;5065778;27;45249;-76
2021/10/13 01:01:05;;;;;;;;;8.25;7.25;;;;;21.03;48.76;101606.06;5048302;27;45549;-77
2021/10/13 01:03:42;;;;;;;;;8.25;8.00;;;;;21.01;49.34;101618.47;5048301;27;45664;-76
2021/10/13 01:06:24;;;;;;;;;9.75;9.25;;;;;21.00;48.93;101607.88;5064923;27;45462;-76
2021/10/13 01:09:00;;;;;;;;;9.50;9.25;;;;;20.92;49.34;101612.47;5073420;27;46378;-76
2021/10/13 01:11:49;;;;;;;;;5.50;3.50;;;;;20.93;49.04;101619.50;5102676;27;45401;-75
2021/10/13 01:14:55;;;;;;;;;11.25;10.00;;;;;20.87;48.66;101616.09;5072132;27;45268;-77
2021/10/13 01:17:38;;;;;;;;;9.00;9.00;;;;;20.82;49.27;101623.25;5054772;27;45530;-76
2021/10/13 01:20:03;;;;;;;;;7.00;7.00;;;;;20.80;48.81;101619.75;5079889;27;45345;-77
2021/10/13 01:23:19;;;;;;;;;10.00;9.25;;;;;20.77;49.13;101618.97;5103612;27;45286;-77
2021/10/13 01:25:48;;;;;;;;;8.75;8.75;;;;;20.79;49.36;101622.47;5074587;27;45397;-77
2021/10/13 01:28:18;;;;;;;;;10.25;7.50;;;;;20.79;49.01;101614.50;5088412;27;47234;-77
2021/10/13 01:30:57;;;;;;;;;8.00;7.00;;;;;20.76;48.65;101617.19;5071873;27;45299;-77
2021/10/13 01:33:25;;;;;;;;;9.75;8.75;;;;;20.75;48.85;101621.63;5070488;27;45360;-77
2021/10/13 01:35:54;;;;;;;;;8.25;8.25;;;;;20.73;48.51;101617.25;5086115;27;45270;-77
2021/10/13 01:38:22;;;;;;;;;8.50;6.00;;;;;20.72;48.67;101616.38;5060127;27;47257;-77
2021/10/13 01:40:48;;;;;;;;;9.75;8.75;;;;;20.70;48.70;101610.22;5084018;27;45335;-77
2021/10/13 01:43:13;;;;;;;;;8.00;7.00;;;;;20.72;48.28;101619.03;5084945;27;45520;-78
2021/10/13 01:45:40;;;;;;;;;7.50;6.00;;;;;20.73;48.54;101620.78;5101714;27;51305;-77
2021/10/13 01:48:05;;;;;;;;;8.00;7.00;;;;;20.73;48.63;101620.78;5084762;27;46060;-77
2021/10/13 01:50:30;;;;;;;;;5.75;4.50;;;;;20.70;48.27;101619.97;5084473;27;45338;-77
2021/10/13 01:52:56;;;;;;;;;7.75;7.75;;;;;20.68;48.90;101622.66;5067398;27;53740;-77
2021/10/13 01:55:22;;;;;;;;;6.50;6.00;;;;;20.70;48.36;101628.81;5083697;27;45303;-77
2021/10/13 01:57:48;;;;;;;;;7.00;6.00;;;;;20.68;48.41;101608.53;5075557;27;45271;-77
2021/10/13 02:00:14;;;;;;;;;7.00;6.50;;;;;20.66;48.44;101621.78;5067551;27;45284;-77
2021/10/13 02:02:39;;;;;;;;;8.00;6.75;;;;;20.68;48.57;101620.00;5077285;27;45256;-77
2021/10/13 02:05:05;;;;;;;;;8.25;7.50;;;;;20.66;48.96;101626.22;5069769;27;45576;-76
2021/10/13 02:07:30;;;;;;;;;6.00;6.00;;;;;20.66;48.28;101634.19;5075111;27;46937;-76
2021/10/13 02:09:58;;;;;;;;;7.50;7.00;;;;;20.61;48.28;101634.28;5099361;27;45232;-76
2021/10/13 02:12:23;;;;;;;;;7.75;6.00;;;;;20.53;48.01;101628.25;5077152;27;45444;-76
2021/10/13 02:14:49;;;;;;;;;6.25;6.00;;;;;20.53;48.41;101621.16;5067760;27;45322;-76
2021/10/13 02:17:14;;;;;;;;;7.00;6.00;;;;;20.52;48.51;101632.66;5086262;27;55234;-76
2021/10/13 02:19:40;;;;;;;;;5.00;5.00;;;;;20.51;48.42;101633.56;5071853;27;66395;-76
2021/10/13 02:22:05;;;;;;;;;5.00;5.00;;;;;20.50;48.46;101631.81;5086563;27;45320;-76
2021/10/13 02:24:38;;;;;;;;;6.25;5.25;;;;;20.48;48.45;101630.06;5087236;27;52494;-76
2021/10/13 02:27:13;;;;;;;;;6.25;5.75;;;;;20.50;48.45;101647.75;5122175;27;46540;-76
2021/10/13 02:29:38;;;;;;;;;7.50;7.00;;;;;20.48;48.90;101640.69;5104998;27;45358;-76
2021/10/13 02:32:04;;;;;;;;;6.00;5.75;;;;;20.46;47.57;101645.16;5104641;27;45309;-76
2021/10/13 02:34:30;;;;;;;;;7.25;6.00;;;;;20.43;48.43;101651.38;5079246;27;45453;-76
2021/10/13 02:36:55;;;;;;;;;4.50;4.50;;;;;20.41;48.34;101652.25;5098701;27;46105;-76
2021/10/13 02:39:21;;;;;;;;;5.00;5.00;;;;;20.38;48.14;101652.31;5104272;27;49101;-76
2021/10/13 02:41:46;;;;;;;;;5.00;5.00;;;;;20.39;48.18;101654.06;5072357;27;45314;-76
2021/10/13 02:44:12;;;;;;;;;6.50;6.25;;;;;20.37;48.46;101648.81;5070971;27;55562;-76
2021/10/13 02:47:01;;;;;;;;;5.75;5.75;;;;;20.41;48.51;101646.97;5077859;27;50384;-76
2021/10/13 02:50:04;;;;;;;;;6.25;5.50;;;;;20.44;47.79;101645.19;5073807;27;45335;-76
2021/10/13 02:52:38;;;;;;;;;6.00;4.25;;;;;20.44;48.03;101654.91;5093120;27;45491;-76
2021/10/13 02:55:18;;;;;;;;;6.75;5.00;;;;;20.43;47.67;101658.44;5103849;27;45414;-76
2021/10/13 02:57:59;;;;;;;;;6.50;5.50;;;;;20.42;48.11;101667.28;5076287;27;45289;-76
2021/10/13 03:00:25;;;;;;;;;4.00;4.00;;;;;20.40;47.72;101663.78;5083578;27;45260;-76
2021/10/13 03:02:53;;;;;;;;;6.00;4.25;;;;;20.37;47.80;101669.13;5073267;27;45258;-76
2021/10/13 03:05:19;;;;;;;;;4.75;4.75;;;;;20.36;48.02;101665.63;5113688;27;45473;-76
2021/10/13 03:07:44;;;;;;;;;7.00;5.00;;;;;20.41;47.78;101666.38;5078397;27;45523;-76
2021/10/13 03:10:10;;;;;;;;;6.00;4.50;;;;;20.39;47.53;101668.19;5075050;27;45304;-74
2021/10/13 03:12:40;;;;;;;;;5.50;5.50;;;;;20.37;47.34;101672.66;5056426;27;45416;-76
2021/10/13 03:15:07;;;;;;;;;8.50;5.25;;;;;20.36;47.56;101670.91;5060932;27;45252;-75
2021/10/13 03:17:32;;;;;;;;;5.25;3.00;;;;;20.36;47.12;101672.69;5084355;27;45330;-75
2021/10/13 03:19:57;;;;;;;;;4.75;4.00;;;;;20.31;47.55;101660.38;5109095;27;59912;-75
2021/10/13 03:22:23;;;;;;;;;5.50;5.50;;;;;20.28;46.84;101668.38;5084954;27;51455;-75
2021/10/13 03:24:48;;;;;;;;;8.00;5.25;;;;;20.26;47.70;101674.63;5103804;27;45403;-75
2021/10/13 03:27:14;;;;;;;;;4.50;4.00;;;;;20.25;47.13;101663.13;5121081;27;66013;-75
2021/10/13 03:29:42;;;;;;;;;4.25;4.25;;;;;20.25;47.63;101679.06;5078380;27;48491;-75
2021/10/13 03:32:08;;;;;;;;;4.00;4.00;;;;;20.23;47.25;101675.53;5083062;27;45270;-75
2021/10/13 03:34:33;;;;;;;;;3.50;3.50;;;;;20.22;47.27;101681.72;5105093;27;45509;-75
2021/10/13 03:36:58;;;;;;;;;4.00;4.00;;;;;20.22;47.02;101691.44;5082789;27;46061;-75
2021/10/13 03:39:24;;;;;;;;;6.25;3.50;;;;;20.21;47.33;101681.75;5082534;27;55442;-75
2021/10/13 03:41:49;;;;;;;;;4.00;4.00;;;;;20.18;47.34;101682.69;5082820;27;45299;-75
2021/10/13 03:44:14;;;;;;;;;5.00;4.75;;;;;20.17;48.10;101688.88;5083161;27;45505;-75
2021/10/13 03:46:40;;;;;;;;;3.75;3.75;;;;;20.16;47.78;101683.63;5082620;27;50345;-75
2021/10/13 03:49:06;;;;;;;;;4.25;4.25;;;;;20.14;47.67;101685.41;5049028;27;46301;-75
2021/10/13 03:51:31;;;;;;;;;5.00;5.00;;;;;20.12;47.34;101680.13;5082493;27;45251;-75
2021/10/13 03:53:56;;;;;;;;;5.75;5.00;;;;;20.13;47.73;101678.34;5070411;27;45266;-75
2021/10/13 03:56:22;;;;;;;;;4.00;4.00;;;;;20.13;47.83;101676.56;5070974;27;54599;-75
2021/10/13 03:58:47;;;;;;;;;4.75;4.75;;;;;20.12;47.63;101682.78;5082528;27;51666;-75
2021/10/13 04:01:13;;;;;;;;;4.00;3.00;;;;;20.14;47.46;101680.09;5065728;27;45424;-75
2021/10/13 04:03:39;;;;;;;;;7.00;4.25;;;;;20.11;47.47;101686.31;5048898;27;45762;-75
2021/10/13 04:06:04;;;;;;;;;6.50;4.00;;;;;20.11;47.62;101693.41;5076485;27;45663;-75
2021/10/13 04:08:30;;;;;;;;;5.25;4.25;;;;;20.12;46.97;101693.38;5069944;27;45426;-75
2021/10/13 04:10:55;;;;;;;;;4.00;4.00;;;;;20.11;46.66;101696.06;5054456;27;45300;-75
2021/10/13 04:13:21;;;;;;;;;6.00;5.50;;;;;20.12;47.44;101703.09;5069203;27;50346;-75
2021/10/13 04:15:46;;;;;;;;;4.75;4.00;;;;;20.13;47.49;101703.06;5071820;27;46589;-76
2021/10/13 04:18:11;;;;;;;;;6.25;5.00;;;;;20.17;47.12;101702.16;5078697;27;45357;-76
2021/10/13 04:20:37;;;;;;;;;1.75;1.00;;;;;20.17;47.16;101702.16;5099817;27;61250;-75
2021/10/13 04:23:02;;;;;;;;;3.50;3.50;;;;;20.17;47.13;101714.53;5065703;27;45247;-75
2021/10/13 04:25:28;;;;;;;;;5.00;5.00;;;;;20.16;46.88;101711.00;5068345;27;51553;-75
2021/10/13 04:27:53;;;;;;;;;5.00;3.50;;;;;20.16;47.10;101713.66;5102489;27;55107;-75
2021/10/13 04:30:19;;;;;;;;;3.50;3.50;;;;;20.15;47.23;101719.81;5102575;27;50115;-76
2021/10/13 04:32:44;;;;;;;;;3.00;3.00;;;;;20.15;46.75;101711.88;5065434;27;49201;-75
2021/10/13 04:35:10;;;;;;;;;5.25;4.00;;;;;20.15;46.83;101718.94;5072302;27;45290;-76
2021/10/13 04:37:36;;;;;;;;;3.00;3.00;;;;;20.11;47.09;101718.13;5081351;27;45177;-75
2021/10/13 04:40:02;;;;;;;;;2.00;1.00;;;;;20.11;47.13;101727.84;5072945;27;45268;-77
2021/10/13 04:42:28;;;;;;;;;3.50;3.50;;;;;20.12;47.13;101732.25;5064978;27;46197;-76
2021/10/13 04:44:55;;;;;;;;;3.75;3.75;;;;;20.11;47.17;101736.69;5083957;27;56499;-77
2021/10/13 04:47:21;;;;;;;;;4.00;3.00;;;;;20.15;47.57;101735.72;5104653;27;45492;-76
2021/10/13 04:49:46;;;;;;;;;3.25;3.25;;;;;20.19;47.48;101739.22;5086196;27;45330;-77
2021/10/13 04:52:12;;;;;;;;;6.00;3.50;;;;;20.20;47.47;101733.91;5085522;27;48138;-77
2021/10/13 04:54:37;;;;;;;;;3.00;3.00;;;;;20.22;47.70;101737.41;5068168;27;58818;-77
2021/10/13 04:57:02;;;;;;;;;4.00;4.00;;;;;20.27;47.79;101742.63;5068223;27;52746;-77
2021/10/13 04:59:28;;;;;;;;;3.25;2.25;;;;;20.30;47.89;101742.59;5068543;27;46330;-77
2021/10/13 05:01:53;;;;;;;;;5.25;5.00;;;;;20.31;47.86;101745.22;5077448;27;45588;-78
2021/10/13 05:04:19;;;;;;;;;8.75;6.50;;;;;20.31;48.53;101746.97;5105710;27;45308;-77
2021/10/13 05:06:44;;;;;;;;;6.25;4.75;;;;;20.30;49.13;101740.81;5105780;27;45283;-76
2021/10/13 05:09:10;;;;;;;;;4.75;4.75;;;;;20.30;49.28;101742.59;5105399;27;56952;-79
2021/10/13 05:11:36;;;;;;;;;4.25;3.50;;;;;20.28;49.15;101739.97;5090482;27;45627;-74
2021/10/13 05:14:01;;;;;;;;;2.50;1.75;;;;;20.27;49.50;101750.59;5074391;27;48882;-74
2021/10/13 05:16:26;;;;;;;;;4.75;4.50;;;;;20.27;49.53;101751.47;5088497;27;47295;-77
2021/10/13 05:18:52;;;;;;;;;5.00;4.50;;;;;20.30;49.55;101759.38;5074432;27;60770;-76
2021/10/13 05:21:18;;;;;;;;;8.00;5.00;;;;;20.32;49.95;101759.34;5081713;27;45541;-74
2021/10/13 05:23:44;;;;;;;;;4.25;4.25;;;;;20.36;50.13;101769.00;5072179;27;47119;-75
2021/10/13 05:26:09;;;;;;;;;5.75;4.00;;;;;20.41;50.18;101768.94;5123671;27;45411;-76
2021/10/13 05:28:35;;;;;;;;;4.25;3.00;;;;;20.43;50.00;101759.19;5105361;27;45309;-75
2021/10/13 05:31:00;;;;;;;;;4.25;3.75;;;;;20.49;49.93;101762.66;5068215;27;60797;-76
2021/10/13 05:33:25;;;;;;;;;6.50;6.50;;;;;20.52;49.55;101767.03;5087527;27;45918;-83
2021/10/13 05:36:11;;;;;;;;;7.00;5.00;;;;;20.56;49.66;101774.03;5067513;27;49226;-78
2021/10/13 05:38:39;;;;;;;;;4.00;4.00;;;;;20.59;49.83;101766.94;5070450;27;45372;-81
2021/10/13 05:41:07;;;;;;;;;7.25;6.50;;;;;20.64;48.43;101765.97;5084140;27;62336;-79
2021/10/13 05:43:38;;;;;;;;;5.25;3.75;;;;;20.57;49.28;101763.41;5085022;27;45398;-80
2021/10/13 05:46:04;;;;;;;;;6.25;4.50;;;;;20.52;48.64;101757.31;5067938;27;45446;-79
2021/10/13 05:48:29;;;;;;;;;4.50;3.75;;;;;20.53;47.96;101774.09;5114130;27;45869;-80
2021/10/13 05:50:55;;;;;;;;;6.25;5.75;;;;;20.47;48.58;101774.19;5112579;27;58132;-77
2021/10/13 05:53:22;;;;;;;;;7.50;4.50;;;;;20.50;48.50;101771.47;5084262;27;47018;-79
2021/10/13 05:55:47;;;;;;;;;6.00;4.75;;;;;20.49;48.38;101767.94;5093734;27;45403;-78
2021/10/13 05:58:15;;;;;;;;;3.00;3.00;;;;;20.48;48.19;101775.94;5091102;27;45427;-80
2021/10/13 06:00:41;;;;;;;;;5.50;4.00;;;;;20.45;48.47;101781.28;5097914;27;45738;-80
2021/10/13 06:03:06;;;;;;;;;4.00;4.00;;;;;20.46;48.26;101775.09;5069309;27;47157;-81
2021/10/13 06:05:32;;;;;;;;;6.25;4.75;;;;;20.45;48.68;101792.78;5078858;27;45453;-80
2021/10/13 06:07:57;;;;;;;;;4.00;4.00;;;;;20.43;48.43;101777.75;5102709;27;45218;-82
2021/10/13 06:10:23;;;;;;;;;8.75;4.25;;;;;20.48;48.11;101791.84;5072735;27;45843;-81
2021/10/13 06:12:48;;;;;;;;;4.75;4.25;;;;;20.48;48.08;101786.53;5089007;27;45252;-82
2021/10/13 06:15:13;;;;;;;;;4.25;3.75;;;;;20.43;47.68;101786.63;5104414;27;45209;-82
2021/10/13 06:17:39;;;;;;;;;4.50;4.50;;;;;20.42;47.94;101794.56;5080684;27;45840;-81
2021/10/13 06:20:05;;;;;;;;;4.75;4.00;;;;;20.38;48.03;101799.03;5068587;27;60366;-82
2021/10/13 06:22:30;;;;;;;;;5.50;3.25;;;;;20.33;47.37;101799.13;5091364;27;45352;-81
2021/10/13 06:24:56;;;;;;;;;6.00;5.00;;;;;20.28;47.78;101806.25;5103734;27;65064;-80
2021/10/13 06:27:23;;;;;;;;;5.25;5.00;;;;;20.28;47.26;101810.66;5080867;27;45311;-81
2021/10/13 06:29:48;;;;;;;;;5.50;5.50;;;;;20.25;47.27;101808.94;5084038;27;45431;-82
2021/10/13 06:32:13;;;;;;;;;6.00;4.00;;;;;20.23;47.74;101808.06;5102067;27;46906;-81
2021/10/13 06:34:39;;;;;;;;;4.50;4.00;;;;;20.23;47.76;101817.78;5106738;27;45310;-81
2021/10/13 06:37:06;;;;;;;;;6.00;5.00;;;;;20.22;47.72;101814.25;5079093;27;45715;-79
2021/10/13 06:39:33;;;;;;;;;4.75;4.50;;;;;20.22;47.59;101816.91;5087482;27;45490;-81
2021/10/13 06:41:58;;;;;;;;;6.75;5.50;;;;;20.23;47.17;101820.44;5093379;27;45280;-81
2021/10/13 06:44:25;;;;;;;;;6.75;5.25;;;;;20.23;47.57;101818.66;5075699;27;45201;-82
2021/10/13 06:46:50;;;;;;;;;4.75;3.75;;;;;20.25;48.16;101827.50;5101502;27;45226;-80
2021/10/13 06:49:16;;;;;;;;;4.00;4.00;;;;;20.33;48.40;101825.63;5096954;27;45391;-82
2021/10/13 06:51:42;;;;;;;;;6.25;4.00;;;;;20.40;48.54;101820.22;5110816;27;47543;-81
2021/10/13 06:54:07;;;;;;;;;6.75;5.50;;;;;20.51;48.96;101823.66;5110340;27;45520;-81
2021/10/13 06:56:33;;;;;;;;;6.00;5.00;;;;;20.58;47.44;101812.88;5109743;27;45406;-81
2021/10/13 06:58:58;;;;;;;;;5.00;5.00;;;;;20.62;47.26;101816.41;5114515;27;45584;-81
2021/10/13 07:01:24;;;;;;;;;5.50;4.75;;;;;20.68;46.47;101816.31;5094499;27;45397;-80
2021/10/13 07:03:49;;;;;;;;;5.25;5.25;;;;;20.73;45.37;101825.06;5093705;27;49707;-80
2021/10/13 07:06:14;;;;;;;;;4.00;4.00;;;;;20.71;44.62;101831.28;5107015;27;46476;-81
2021/10/13 07:08:40;;;;;;;;;7.00;6.25;;;;;20.63;44.31;101828.75;5097277;27;53499;-80
2021/10/13 07:11:09;;;;;;;;;7.50;7.00;;;;;20.61;44.67;101835.88;5091366;27;45501;-81
2021/10/13 07:13:34;;;;;;;;;6.25;4.25;;;;;20.64;45.40;101841.13;5092203;27;45278;-82
2021/10/13 07:16:00;;;;;;;;;7.00;4.00;;;;;20.64;44.55;101841.13;5075406;27;45252;-79
2021/10/13 07:18:25;;;;;;;;;5.25;4.50;;;;;20.63;43.93;101844.66;5101210;27;45185;-81
2021/10/13 07:20:51;;;;;;;;;5.00;5.00;;;;;20.59;44.20;101846.50;5080782;27;58387;-81
2021/10/13 07:23:16;;;;;;;;;8.50;6.50;;;;;20.56;44.57;101846.53;5129511;27;45492;-79
2021/10/13 07:25:41;;;;;;;;;7.75;6.00;;;;;20.56;45.58;101864.22;5092959;27;45236;-83
2021/10/13 07:28:07;;;;;;;;;9.25;5.25;;;;;20.61;48.33;101859.75;5104213;27;45311;-77
2021/10/13 07:30:33;;;;;;;;;5.00;5.00;;;;;20.74;46.42;101860.41;5089879;27;46514;-78
2021/10/13 07:32:58;;;;;;;;;8.00;5.00;;;;;20.78;45.56;101868.31;5118119;27;45633;-77
2021/10/13 07:35:27;;;;;;;;;5.75;5.00;;;;;20.86;45.41;101874.41;5086622;27;45465;-77
2021/10/13 07:37:53;;;;;;;;;6.50;5.50;;;;;20.93;44.99;101864.53;5079411;28;45508;-84
2021/10/13 07:40:18;;;;;;;;;5.75;5.75;;;;;20.96;44.27;101863.63;5062264;28;46085;-80
2021/10/13 07:42:44;;;;;;;;;5.75;4.25;;;;;20.98;44.33;101875.97;5079366;28;45443;-81
2021/10/13 07:45:09;;;;;;;;;5.25;4.25;;;;;20.94;43.04;101873.38;5062468;28;45298;-81
2021/10/13 07:47:35;;;;;;;;;9.75;7.00;;;;;20.87;43.60;101870.84;5070465;27;45472;-81
2021/10/13 07:50:00;;;;;;;;;5.25;4.00;;;;;20.85;43.62;101866.47;5088384;27;46158;-81
2021/10/13 07:52:25;;;;;;;;;5.75;5.75;;;;;20.89;43.84;101871.69;5070130;27;45642;-81
2021/10/13 07:54:51;;;;;;;;;6.75;5.00;;;;;20.93;43.68;101872.50;5068813;27;45778;-81
2021/10/13 07:57:16;;;;;;;;;7.00;6.00;;;;;20.96;43.48;101869.81;5078558;28;45399;-81
2021/10/13 07:59:42;;;;;;;;;6.75;5.00;;;;;21.01;43.73;101870.59;5075395;27;62234;-82
2021/10/13 08:02:07;;;;;;;;;5.25;5.25;;;;;21.06;42.97;101875.84;5070949;27;45417;-80
2021/10/13 08:04:33;;;;;;;;;4.00;4.00;;;;;21.05;43.23;101879.41;5096645;27;45946;-81
2021/10/13 08:06:58;;;;;;;;;4.00;4.00;;;;;21.05;43.58;101867.00;5071941;28;61030;-82
2021/10/13 08:09:23;;;;;;;;;4.75;4.75;;;;;21.10;43.09;101869.56;5079505;27;49939;-85
2021/10/13 08:11:49;;;;;;;;;5.50;5.50;;;;;21.11;43.03;101880.19;5104077;27;45489;-83
2021/10/13 08:14:14;;;;;;;;;50.25;41.25;;;;;21.11;43.19;101873.97;5088396;27;45476;-81
2021/10/13 08:16:40;;;;;;;;;36.25;31.25;;;;;21.12;43.63;101884.59;5082063;27;45270;-81
2021/10/13 08:19:05;;;;;;;;;43.50;35.25;;;;;21.13;44.09;101882.81;5089905;27;46414;-81
2021/10/13 08:21:31;;;;;;;;;24.25;24.25;;;;;21.15;43.38;101881.00;5092504;27;47167;-81
2021/10/13 08:23:56;;;;;;;;;19.25;18.25;;;;;21.16;43.35;101882.75;5059376;27;45418;-84
2021/10/13 08:26:21;;;;;;;;;16.50;14.50;;;;;21.18;43.41;101875.63;5076952;27;45478;-84
2021/10/13 08:28:47;;;;;;;;;18.00;14.50;;;;;21.17;43.19;101869.44;5095459;27;45383;-82
2021/10/13 08:31:14;;;;;;;;;12.75;11.00;;;;;21.23;43.75;101884.41;5112258;27;45286;-83
2021/10/13 08:33:40;;;;;;;;;12.25;10.00;;;;;21.23;43.73;101873.81;5055458;28;45594;-80
2021/10/13 08:36:06;;;;;;;;;11.00;9.50;;;;;21.24;43.30;101879.97;5109878;27;45275;-82
2021/10/13 08:38:31;;;;;;;;;11.75;9.50;;;;;21.24;42.79;101886.16;5113170;27;45254;-82
2021/10/13 08:40:56;;;;;;;;;9.50;9.25;;;;;21.25;42.73;101882.59;5107198;27;45418;-81
2021/10/13 08:43:22;;;;;;;;;10.00;8.50;;;;;21.27;42.63;101883.47;5101083;27;47174;-81
2021/10/13 08:45:47;;;;;;;;;9.00;7.50;;;;;21.30;43.00;101886.09;5098816;27;45531;-80
2021/10/13 08:48:13;;;;;;;;;7.50;7.00;;;;;21.33;43.11;101885.16;5078067;27;48189;-80
2021/10/13 08:50:39;;;;;;;;;10.25;8.00;;;;;21.33;42.96;101890.47;5085661;27;45346;-80
2021/10/13 08:53:14;;;;;;;;;5.25;3.50;;;;;21.36;43.02;101890.41;5088441;27;45458;-80
2021/10/13 08:55:41;;;;;;;;;6.00;6.00;;;;;21.37;42.62;101887.75;5076675;27;45502;-81
2021/10/13 08:58:14;;;;;;;;;3.75;3.50;;;;;21.39;43.14;101891.25;5075621;27;47288;-80
2021/10/13 09:00:40;;;;;;;;;8.75;7.50;;;;;21.41;42.70;101893.88;5106447;27;45489;-79
2021/10/13 09:03:06;;;;;;;;;10.25;7.00;;;;;21.43;42.79;101897.38;5088497;27;45573;-79
2021/10/13 09:05:31;;;;;;;;;6.75;5.75;;;;;21.47;42.95;101899.09;5074773;28;45489;-79
2021/10/13 09:07:56;;;;;;;;;7.00;7.00;;;;;21.50;42.64;101899.03;5073753;27;65457;-80
2021/10/13 09:10:34;;;;;;;;;5.25;5.25;;;;;21.54;42.72;101902.50;5096133;27;45361;-79
2021/10/13 09:13:05;;;;;;;;;7.50;5.75;;;;;21.56;42.87;101901.59;5094944;27;45860;-82
2021/10/13 09:15:31;;;;;;;;;7.50;6.50;;;;;21.59;43.62;101901.53;5099634;27;45456;-82
2021/10/13 09:18:00;;;;;;;;;9.25;7.00;;;;;21.63;43.09;101899.69;5110961;27;46675;-84
2021/10/13 09:20:47;;;;;;;;;6.25;6.25;;;;;21.67;43.33;101901.38;5109245;27;45441;-83
2021/10/13 09:23:15;;;;;;;;;8.25;8.00;;;;;21.70;42.69;101906.63;5082246;27;45379;-83
2021/10/13 09:25:41;;;;;;;;;9.75;6.50;;;;;21.70;42.87;101896.00;5095791;27;45449;-82
2021/10/13 09:28:06;;;;;;;;;7.75;7.75;;;;;21.68;42.30;101896.03;5102004;27;45492;-82
2021/10/13 09:30:41;;;;;;;;;7.25;6.25;;;;;21.71;41.73;101898.63;5087657;27;45888;-82
2021/10/13 09:33:18;;;;;;;;;4.50;4.50;;;;;21.70;41.28;101906.63;5102155;27;45430;-83
2021/10/13 09:35:46;;;;;;;;;6.00;6.00;;;;;21.72;42.08;101908.38;5066788;28;45497;-82
2021/10/13 09:38:14;;;;;;;;;8.00;6.00;;;;;21.73;41.09;101909.25;5098157;27;45359;-82
2021/10/13 09:40:39;;;;;;;;;8.00;5.25;;;;;21.68;41.09;101904.00;5084159;27;45473;-83
2021/10/13 09:43:05;;;;;;;;;4.75;4.00;;;;;21.67;40.16;101904.03;5102572;27;56202;-82
2021/10/13 09:45:32;;;;;;;;;6.25;5.75;;;;;21.68;41.09;101913.78;5102486;27;47407;-82
2021/10/13 09:48:03;;;;;;;;;5.75;5.75;;;;;21.70;41.14;101903.97;5075902;27;45645;-86
2021/10/13 09:50:45;;;;;;;;;6.50;5.00;;;;;21.71;40.80;101905.72;5050843;27;46105;-82
2021/10/13 09:53:22;;;;;;;;;5.75;5.75;;;;;21.71;41.09;101919.88;5079294;27;45331;-85
2021/10/13 09:55:50;;;;;;;;;8.50;5.75;;;;;21.65;40.72;101905.88;5102505;27;45516;-79
2021/10/13 09:58:22;;;;;;;;;6.25;4.25;;;;;21.69;40.95;101915.50;5086316;27;47613;-78
2021/10/13 10:00:48;;;;;;;;;7.50;5.75;;;;;21.64;42.10;101904.13;5105076;27;45647;-80
2021/10/13 10:03:13;;;;;;;;;5.00;5.00;;;;;21.72;42.18;101915.47;5104764;27;61445;-79
2021/10/13 10:05:39;;;;;;;;;4.25;3.75;;;;;21.74;42.63;101916.31;5083899;27;45944;-81
2021/10/13 10:08:10;;;;;;;;;6.25;6.00;;;;;21.77;42.14;101918.03;5102176;27;45410;-80
2021/10/13 10:10:36;;;;;;;;;6.50;5.50;;;;;21.79;42.33;101918.88;5102471;27;45224;-79
2021/10/13 10:13:09;;;;;;;;;4.00;4.00;;;;;21.81;41.84;101925.94;5084379;27;45193;-87
2021/10/13 10:15:34;;;;;;;;;5.50;4.00;;;;;21.79;41.42;101926.84;5113082;27;45532;-79
2021/10/13 10:18:00;;;;;;;;;6.75;4.25;;;;;21.71;40.05;101922.53;5084327;27;46105;-75
2021/10/13 10:20:38;;;;;;;;;5.75;5.50;;;;;21.69;40.16;101923.50;5117618;27;45189;-79
2021/10/13 10:23:33;;;;;;;;;5.25;5.00;;;;;21.65;40.38;101924.47;5129203;27;45494;-77
2021/10/13 10:26:24;;;;;;;;;7.00;4.00;;;;;21.62;40.34;101924.50;5124105;27;45472;-77
2021/10/13 10:28:52;;;;;;;;;6.25;4.00;;;;;21.57;39.91;101919.28;5107174;27;45492;-74
2021/10/13 10:31:26;;;;;;;;;4.00;3.00;;;;;21.57;40.73;101927.25;5102286;27;45465;-78
2021/10/13 10:33:52;;;;;;;;;4.25;4.25;;;;;21.56;40.19;101922.84;5106097;27;45484;-75
2021/10/13 10:36:17;;;;;;;;;4.00;3.50;;;;;21.51;40.58;101911.41;5076074;27;45606;-78
2021/10/13 10:38:47;;;;;;;;;4.50;3.75;;;;;21.49;40.21;101907.03;5104281;27;63010;-76
2021/10/13 10:41:13;;;;;;;;;4.25;3.00;;;;;21.45;39.99;101925.66;5111455;27;45443;-76
2021/10/13 10:43:38;;;;;;;;;3.00;3.00;;;;;21.37;39.48;101913.41;5122050;27;62206;-77
2021/10/13 10:46:13;;;;;;;;;4.75;3.00;;;;;21.34;40.33;101914.34;5097722;27;63985;-81
2021/10/13 10:48:47;;;;;;;;;2.25;1.50;;;;;21.34;39.53;101909.03;5072004;27;45420;-75
2021/10/13 10:51:13;;;;;;;;;2.75;2.00;;;;;21.29;39.50;101897.63;5083576;27;45295;-77
2021/10/13 10:53:44;;;;;;;;;2.00;2.00;;;;;21.27;39.85;101910.03;5083307;27;45303;-76
2021/10/13 10:56:09;;;;;;;;;6.50;5.50;;;;;21.24;39.89;101910.06;5096462;27;45322;-76
2021/10/13 10:58:34;;;;;;;;;6.00;3.25;;;;;21.23;39.66;101904.78;5122104;27;45410;-76
2021/10/13 11:01:11;;;;;;;;;5.00;3.00;;;;;21.22;40.27;101906.56;5103984;27;45318;-77
2021/10/13 11:03:38;;;;;;;;;4.75;3.75;;;;;21.24;39.88;101920.69;5104058;27;45453;-76
2021/10/13 11:06:12;;;;;;;;;4.00;3.00;;;;;21.22;39.62;101908.34;5122277;27;45335;-76
2021/10/13 11:08:49;;;;;;;;;3.00;3.00;;;;;21.17;39.25;101911.94;5100137;27;46317;-77
2021/10/13 11:11:14;;;;;;;;;4.00;3.00;;;;;21.14;38.74;101916.44;5069699;27;45274;-76
2021/10/13 11:13:40;;;;;;;;;5.50;4.00;;;;;21.08;39.35;101917.38;5101655;27;45310;-76
2021/10/13 11:16:08;;;;;;;;;4.50;4.50;;;;;21.11;39.47;101916.47;5106119;27;45567;-78
2021/10/13 11:18:34;;;;;;;;;4.25;3.00;;;;;21.11;39.44;101913.81;5101062;27;46555;-77
2021/10/13 11:21:08;;;;;;;;;4.00;3.00;;;;;21.11;39.28;101921.75;5100021;27;45384;-77
2021/10/13 11:23:33;;;;;;;;;5.00;4.00;;;;;21.08;39.06;101928.00;5066189;27;45430;-76
2021/10/13 11:25:59;;;;;;;;;4.50;3.00;;;;;21.11;39.07;101932.38;5088972;27;45740;-76